Time;durP1;ratioP1;P1;durP2;ratioP2;P2;SDS_P1;SDS_P2;PMS_P1;PMS_P2;Temp;Humidity;BMP_temperature;BMP_pressure;BME280_temperature;BME280_humidity;BME280_pressure;Samples;Min_cycle;Max_cycle;Signal;HPM_P1;HPM_P2
2021/07/24 00:00:27;;;;;;;19.08;15.85;;;;;;;28.83;44.18;101239.13;5072848;28;20020;-87
2021/07/24 00:02:53;;;;;;;19.77;15.65;;;;;;;28.86;44.05;101243.06;5073681;28;20497;-88
2021/07/24 00:05:19;;;;;;;19.70;16.58;;;;;;;29.33;42.90;101235.47;5072694;28;20033;-84
2021/07/24 00:07:45;;;;;;;18.48;13.90;;;;;;;29.07;43.63;101234.31;5072724;28;20094;-81
2021/07/24 00:10:10;;;;;;;18.05;15.20;;;;;;;28.83;43.49;101229.88;5073535;28;20187;-81
2021/07/24 00:12:36;;;;;;;18.95;13.93;;;;;;;28.92;42.74;101232.97;5073795;28;20070;-81
2021/07/24 00:15:02;;;;;;;16.98;13.50;;;;;;;28.87;42.76;101228.63;5072245;28;20029;-80
2021/07/24 00:17:28;;;;;;;17.63;14.57;;;;;;;29.05;41.96;101227.53;5073760;28;20027;-89
2021/07/24 00:19:53;;;;;;;19.13;13.07;;;;;;;28.90;42.32;101224.13;5072152;28;20024;-79
2021/07/24 00:22:19;;;;;;;14.75;12.52;;;;;;;29.02;41.93;101221.56;5072151;28;20431;-81
2021/07/24 00:24:46;;;;;;;16.63;12.73;;;;;;;28.97;41.75;101226.88;5072394;28;20107;-82
2021/07/24 00:27:12;;;;;;;16.88;13.25;;;;;;;28.85;41.88;101222.59;5072622;28;20041;-81
2021/07/24 00:29:37;;;;;;;18.55;13.15;;;;;;;28.72;42.16;101225.25;5072501;28;20099;-89
2021/07/24 00:32:04;;;;;;;18.83;12.73;;;;;;;28.72;42.48;101230.88;5073678;28;20021;-89
2021/07/24 00:34:30;;;;;;;15.50;12.88;;;;;;;28.69;42.44;101239.34;5072446;28;20072;-82
2021/07/24 00:36:57;;;;;;;16.45;13.15;;;;;;;28.64;42.68;101235.00;5072076;28;20529;-89
2021/07/24 00:39:22;;;;;;;17.25;12.60;;;;;;;28.65;42.86;101221.75;5072990;28;20096;-89
2021/07/24 00:41:52;;;;;;;16.10;12.23;;;;;;;28.51;42.89;101219.94;5072495;28;20139;-88
2021/07/24 00:44:20;;;;;;;14.80;12.25;;;;;;;28.48;42.54;101217.97;5071943;28;20478;-90
2021/07/24 00:46:46;;;;;;;14.00;12.63;;;;;;;28.58;42.76;101214.22;5072071;28;20028;-89
2021/07/24 00:49:13;;;;;;;19.23;13.55;;;;;;;28.64;42.37;101212.53;5072286;28;20397;-81
2021/07/24 00:51:44;;;;;;;17.63;12.80;;;;;;;28.61;42.77;101207.72;5071815;28;20123;-87
2021/07/24 00:54:10;;;;;;;18.88;12.65;;;;;;;28.42;42.82;101200.03;5071875;28;20029;-81
2021/07/24 00:56:38;;;;;;;16.75;13.55;;;;;;;28.59;42.50;101206.56;5071069;28;20028;-80
2021/07/24 00:59:04;;;;;;;14.77;12.10;;;;;;;28.50;42.88;101197.91;5071940;28;20451;-85
2021/07/24 01:01:30;;;;;;;21.30;13.23;;;;;;;28.34;43.00;101192.88;5073298;28;20048;-81
2021/07/24 01:03:55;;;;;;;16.55;12.55;;;;;;;28.36;43.38;101202.50;5071927;28;20020;-81
2021/07/24 01:06:22;;;;;;;15.52;12.98;;;;;;;28.38;43.26;101193.63;5071735;28;20398;-89
2021/07/24 01:08:48;;;;;;;17.75;13.65;;;;;;;28.52;42.70;101192.63;5072952;28;20118;-80
2021/07/24 01:11:14;;;;;;;20.33;15.07;;;;;;;28.46;43.04;101186.69;5071819;28;20025;-81
2021/07/24 01:13:41;;;;;;;18.17;14.18;;;;;;;28.36;43.20;101180.03;5073137;28;20028;-81
2021/07/24 01:16:07;;;;;;;20.80;13.30;;;;;;;28.42;42.98;101174.72;5071754;28;20017;-88
2021/07/24 01:18:33;;;;;;;26.40;15.20;;;;;;;28.60;42.59;101180.06;5071470;28;20029;-80
2021/07/24 01:21:06;;;;;;;18.52;13.98;;;;;;;28.40;42.67;101171.53;5071722;28;20518;-80
2021/07/24 01:23:32;;;;;;;16.33;13.80;;;;;;;28.47;42.49;101174.22;5071885;28;20025;-81
2021/07/24 01:25:58;;;;;;;18.67;13.75;;;;;;;28.58;42.21;101179.69;5071796;28;20032;-82
2021/07/24 01:28:26;;;;;;;17.95;13.82;;;;;;;28.62;42.33;101171.97;5071720;28;20020;-88
2021/07/24 01:30:52;;;;;;;19.05;14.70;;;;;;;28.59;41.90;101168.00;5071188;28;20021;-81
2021/07/24 01:33:18;;;;;;;18.67;14.45;;;;;;;28.31;42.56;101162.84;5069717;28;20028;-88
2021/07/24 01:35:47;;;;;;;16.50;14.77;;;;;;;28.48;42.19;101162.53;5071473;28;20393;-89
2021/07/24 01:38:14;;;;;;;19.25;15.15;;;;;;;28.43;42.09;101156.63;5071255;28;20046;-80
2021/07/24 01:40:40;;;;;;;17.27;15.20;;;;;;;28.38;42.34;101159.91;5071705;28;20112;-81
2021/07/24 01:43:06;;;;;;;20.70;14.40;;;;;;;28.55;41.91;101158.81;5071901;28;20103;-81
2021/07/24 01:45:35;;;;;;;17.52;15.30;;;;;;;28.53;42.04;101154.88;5072631;28;20029;-88
2021/07/24 01:48:04;;;;;;;20.42;15.15;;;;;;;28.47;42.00;101149.72;5071047;28;20063;-80
2021/07/24 01:53:14;;;;;;;16.88;15.07;;;;;;;28.42;41.88;101149.44;5072951;28;20031;-81
2021/07/24 01:55:52;;;;;;;24.48;16.83;;;;;;;28.51;41.96;101146.88;5071401;28;20548;-87
2021/07/24 01:58:31;;;;;;;20.20;16.92;;;;;;;28.51;41.79;101134.84;5071523;28;20028;-89
2021/07/24 02:01:01;;;;;;;20.83;18.08;;;;;;;28.32;41.94;101133.50;5072646;28;20039;-90
2021/07/24 02:03:37;;;;;;;21.67;16.98;;;;;;;28.24;41.97;101132.00;5071585;28;20029;-82
2021/07/24 02:06:04;;;;;;;22.48;17.92;;;;;;;28.21;42.14;101136.47;5072873;28;20029;-80
2021/07/24 02:08:32;;;;;;;27.17;19.88;;;;;;;28.38;41.75;101129.00;5073855;28;20024;-80
2021/07/24 02:11:00;;;;;;;19.77;17.00;;;;;;;28.37;41.55;101133.84;5074700;28;20024;-81
2021/07/24 02:13:26;;;;;;;20.77;16.40;;;;;;;28.39;41.06;101127.78;5074951;28;20024;-80
2021/07/24 02:15:52;;;;;;;17.77;15.88;;;;;;;28.36;41.49;101123.03;5076145;28;20086;-80
2021/07/24 02:18:20;;;;;;;19.30;16.38;;;;;;;28.20;41.76;101118.81;5076066;28;20517;-88
2021/07/24 02:20:46;;;;;;;22.20;15.82;;;;;;;28.19;41.71;101119.25;5074804;28;20112;-89
2021/07/24 02:23:16;;;;;;;18.65;15.50;;;;;;;28.15;41.77;101124.13;5074380;28;20502;-80
2021/07/24 02:25:43;;;;;;;19.55;16.30;;;;;;;28.15;41.82;101126.94;5075830;28;20432;-81
2021/07/24 02:28:09;;;;;;;20.23;15.80;;;;;;;28.02;41.97;101125.91;5074745;28;20508;-81
2021/07/24 02:30:38;;;;;;;21.30;16.48;;;;;;;27.99;42.27;101136.00;5074466;28;20024;-80
2021/07/24 02:33:04;;;;;;;21.40;15.05;;;;;;;27.91;42.23;101132.50;5074999;28;20554;-80
2021/07/24 02:35:29;;;;;;;21.35;15.88;;;;;;;27.89;42.26;101132.13;5075613;28;20497;-80
2021/07/24 02:37:55;;;;;;;20.45;16.88;;;;;;;27.89;42.13;101129.31;5075640;28;20045;-81
2021/07/24 02:40:21;;;;;;;19.05;15.45;;;;;;;27.85;42.09;101127.75;5074376;28;20036;-81
2021/07/24 02:42:48;;;;;;;20.27;14.90;;;;;;;27.81;42.29;101127.81;5074706;28;20032;-89
2021/07/24 02:45:13;;;;;;;18.83;14.52;;;;;;;27.77;42.50;101120.66;5074435;28;20024;-81
2021/07/24 02:47:39;;;;;;;20.63;14.38;;;;;;;27.89;42.16;101123.69;5108073;28;20043;-81
2021/07/24 02:50:05;;;;;;;20.70;14.02;;;;;;;27.98;42.33;101125.19;5074096;28;20036;-80
2021/07/24 02:52:31;;;;;;;18.50;13.23;;;;;;;27.93;42.34;101124.44;5073799;28;20028;-86
2021/07/24 02:54:57;;;;;;;16.85;12.02;;;;;;;27.87;42.32;101125.31;5074058;28;20112;-80
2021/07/24 02:57:23;;;;;;;15.00;12.18;;;;;;;27.82;42.10;101132.22;5074209;28;20501;-81
2021/07/24 02:59:48;;;;;;;14.63;10.52;;;;;;;27.84;42.21;101132.59;5074326;28;20032;-80
2021/07/24 03:02:15;;;;;;;15.35;11.18;;;;;;;27.84;42.17;101134.59;5073896;28;20098;-80
2021/07/24 03:04:41;;;;;;;13.90;10.77;;;;;;;27.72;42.60;101133.16;5074255;28;20078;-81
2021/07/24 03:07:07;;;;;;;11.57;10.23;;;;;;;27.87;42.25;101136.56;5074618;28;20487;-86
2021/07/24 03:09:32;;;;;;;13.60;10.02;;;;;;;27.73;42.54;101139.56;5073733;28;20029;-89
2021/07/24 03:11:58;;;;;;;12.57;9.95;;;;;;;27.77;42.08;101131.88;5073542;28;20044;-81
2021/07/24 03:14:24;;;;;;;16.90;10.93;;;;;;;27.78;42.33;101127.88;5073909;28;20024;-80
2021/07/24 03:16:49;;;;;;;13.00;10.10;;;;;;;27.77;42.32;101120.66;5073590;28;20086;-80
2021/07/24 03:19:15;;;;;;;10.70;9.02;;;;;;;27.67;42.27;101115.97;5074076;28;20090;-90
2021/07/24 03:21:40;;;;;;;11.57;8.48;;;;;;;27.56;42.44;101124.50;5073634;28;20467;-81
2021/07/24 03:24:07;;;;;;;15.98;9.80;;;;;;;27.63;42.14;101125.22;5073394;28;20360;-80
2021/07/24 03:26:33;;;;;;;13.70;10.07;;;;;;;27.73;41.99;101126.31;5074906;28;20035;-80
2021/07/24 03:28:58;;;;;;;16.70;11.13;;;;;;;27.67;42.27;101113.16;5073407;28;20032;-88
2021/07/24 03:31:24;;;;;;;14.35;10.52;;;;;;;27.65;42.18;101111.53;5074509;28;20525;-80
2021/07/24 03:33:50;;;;;;;12.32;10.65;;;;;;;27.55;42.46;101101.25;5073301;28;20052;-80
2021/07/24 03:36:15;;;;;;;14.48;9.38;;;;;;;27.58;42.35;101106.06;5074240;28;20032;-79
2021/07/24 03:38:41;;;;;;;12.73;9.02;;;;;;;27.62;41.79;101117.22;5073242;28;20037;-81
2021/07/24 03:41:06;;;;;;;12.07;8.60;;;;;;;27.40;42.24;101113.09;5072937;28;20078;-88
2021/07/24 03:43:32;;;;;;;12.60;9.65;;;;;;;27.57;42.01;101103.63;5074257;28;20095;-80
2021/07/24 03:45:58;;;;;;;13.07;9.27;;;;;;;27.44;41.81;101100.63;5073081;28;20020;-80
2021/07/24 03:48:24;;;;;;;16.58;9.68;;;;;;;27.44;42.01;101103.44;5073066;28;20028;-80
2021/07/24 03:50:49;;;;;;;13.13;10.18;;;;;;;27.41;41.94;101103.44;5074306;28;20471;-79
2021/07/24 03:53:15;;;;;;;15.93;10.60;;;;;;;27.33;41.94;101092.31;5072958;28;20043;-81
2021/07/24 03:55:41;;;;;;;18.77;10.13;;;;;;;27.26;42.37;101092.41;5072817;28;20089;-81
2021/07/24 03:58:06;;;;;;;14.57;10.38;;;;;;;27.30;42.22;101086.75;5072710;28;20119;-88
2021/07/24 04:00:41;;;;;;;11.38;10.07;;;;;;;27.25;42.14;101079.59;5072768;28;20027;-80
2021/07/24 04:03:07;;;;;;;14.93;10.35;;;;;;;27.14;42.58;101081.75;5072977;28;20037;-89
2021/07/24 04:05:39;;;;;;;17.33;10.18;;;;;;;27.05;42.79;101073.84;5072606;28;20020;-80
2021/07/24 04:08:05;;;;;;;17.73;11.10;;;;;;;26.99;42.52;101072.66;5073776;28;20106;-81
2021/07/24 04:10:33;;;;;;;16.30;10.50;;;;;;;27.04;42.63;101063.00;5072556;28;20075;-82
2021/07/24 04:12:59;;;;;;;15.77;11.45;;;;;;;27.12;42.47;101058.13;5072504;28;20037;-81
2021/07/24 04:15:25;;;;;;;14.95;11.23;;;;;;;27.05;42.51;101056.19;5055742;28;20052;-80
2021/07/24 04:17:52;;;;;;;13.13;10.10;;;;;;;27.18;42.34;101057.25;5072504;28;20070;-81
2021/07/24 04:20:21;;;;;;;16.27;10.35;;;;;;;27.16;42.43;101048.47;5072398;28;20062;-81
2021/07/24 04:22:46;;;;;;;18.15;10.02;;;;;;;27.09;42.60;101046.53;5073739;28;20084;-80
2021/07/24 04:25:12;;;;;;;15.57;10.50;;;;;;;26.99;42.88;101046.63;5071947;28;20126;-80
2021/07/24 04:27:37;;;;;;;13.10;9.77;;;;;;;26.90;42.99;101049.13;5072327;28;20028;-80
2021/07/24 04:30:03;;;;;;;16.17;9.93;;;;;;;26.98;42.90;101043.03;5071806;28;20482;-80
2021/07/24 04:32:29;;;;;;;15.50;10.38;;;;;;;26.86;43.16;101046.38;5071381;28;20060;-82
2021/07/24 04:34:55;;;;;;;14.00;9.32;;;;;;;27.06;42.43;101050.19;5073131;28;20514;-80
2021/07/24 04:37:20;;;;;;;13.15;8.90;;;;;;;27.27;41.97;101048.31;5073108;28;20052;-80
2021/07/24 04:39:46;;;;;;;13.75;9.93;;;;;;;27.03;42.51;101041.75;5071865;28;20430;-81
2021/07/24 04:42:11;;;;;;;14.80;8.50;;;;;;;26.89;42.78;101042.72;5071808;28;20086;-81
2021/07/24 04:44:38;;;;;;;16.50;9.30;;;;;;;26.93;42.82;101043.50;5072536;28;20024;-80
2021/07/24 04:47:04;;;;;;;17.33;9.70;;;;;;;26.90;42.86;101043.50;5071963;28;20033;-83
2021/07/24 04:49:31;;;;;;;13.15;8.70;;;;;;;26.86;42.67;101051.97;5073249;28;20036;-80
2021/07/24 04:51:59;;;;;;;12.93;9.65;;;;;;;26.89;42.75;101051.13;5072000;28;20032;-81
2021/07/24 04:54:26;;;;;;;12.50;9.05;;;;;;;26.93;42.33;101049.09;5073239;28;20020;-80
2021/07/24 04:56:51;;;;;;;13.25;9.35;;;;;;;27.08;41.86;101042.13;5072197;28;20116;-81
2021/07/24 04:59:18;;;;;;;14.80;10.30;;;;;;;27.22;41.74;101052.41;5072992;28;20128;-89
2021/07/24 05:01:43;;;;;;;13.63;9.13;;;;;;;27.27;41.39;101043.50;5071587;28;20036;-89
2021/07/24 05:04:11;;;;;;;11.93;9.52;;;;;;;27.17;41.38;101044.44;5072867;28;20029;-89
2021/07/24 05:06:36;;;;;;;13.95;9.07;;;;;;;27.06;41.94;101046.59;5072868;28;20097;-85
2021/07/24 05:09:07;;;;;;;16.05;9.23;;;;;;;27.33;41.13;101052.25;5071469;28;20483;-80
2021/07/24 05:11:34;;;;;;;17.08;10.07;;;;;;;27.65;40.60;101052.59;5073018;28;20031;-89
2021/07/24 05:14:00;;;;;;;11.82;9.00;;;;;;;27.62;40.69;101053.44;5072873;28;20113;-81
2021/07/24 05:16:26;;;;;;;14.00;10.10;;;;;;;27.43;40.92;101068.13;5071980;28;20086;-80
2021/07/24 05:18:52;;;;;;;17.98;10.13;;;;;;;27.60;40.60;101050.28;5071635;28;20028;-80
2021/07/24 05:21:18;;;;;;;11.88;9.32;;;;;;;27.59;40.58;101065.53;5072753;28;20090;-89
2021/07/24 05:23:44;;;;;;;16.08;9.65;;;;;;;27.68;40.30;101061.44;5072818;28;20107;-83
2021/07/24 05:26:14;;;;;;;17.92;10.43;;;;;;;27.72;39.75;101079.81;5071403;28;20040;-82
2021/07/24 05:28:40;;;;;;;10.77;8.27;;;;;;;27.48;40.42;101084.50;5071400;28;20016;-81
2021/07/24 05:31:14;;;;;;;14.60;9.15;;;;;;;27.81;39.93;101085.72;5071444;28;20471;-89
2021/07/24 05:33:39;;;;;;;13.23;8.48;;;;;;;27.77;40.01;101086.97;5071829;28;20119;-80
2021/07/24 05:36:05;;;;;;;15.70;9.32;;;;;;;27.90;39.83;101085.97;5072323;28;20063;-81
2021/07/24 05:38:31;;;;;;;12.10;8.15;;;;;;;27.69;40.42;101091.88;5071278;28;20041;-81
2021/07/24 05:40:58;;;;;;;13.52;9.40;;;;;;;27.52;40.88;101085.28;5071433;28;20028;-81
2021/07/24 05:43:23;;;;;;;12.30;8.13;;;;;;;27.54;41.07;101088.44;5074043;28;20123;-81
2021/07/24 05:45:49;;;;;;;13.23;8.02;;;;;;;27.46;41.27;101092.56;5075714;28;20104;-88
2021/07/24 05:48:14;;;;;;;13.65;8.40;;;;;;;27.46;41.12;101097.38;5076158;28;20119;-79
2021/07/24 05:50:40;;;;;;;13.40;6.90;;;;;;;27.44;41.08;101103.44;5074864;28;20545;-80
2021/07/24 05:53:05;;;;;;;10.20;7.07;;;;;;;27.42;41.34;101094.59;5076297;28;20497;-80
2021/07/24 05:55:31;;;;;;;10.50;6.85;;;;;;;27.45;41.00;101093.00;5076584;28;20386;-82
2021/07/24 05:57:57;;;;;;;10.02;6.63;;;;;;;27.49;40.92;101100.13;5075202;28;20531;-81
2021/07/24 06:00:22;;;;;;;13.95;7.65;;;;;;;27.43;41.13;101098.22;5075725;28;20021;-80
2021/07/24 06:02:48;;;;;;;14.60;6.68;;;;;;;27.60;41.13;101100.00;5076205;28;20095;-82
2021/07/24 06:05:13;;;;;;;13.35;7.63;;;;;;;27.53;41.28;101098.09;5074879;28;20028;-80
2021/07/24 06:07:39;;;;;;;12.23;7.93;;;;;;;27.43;41.61;101090.59;5075767;28;20103;-84
2021/07/24 06:10:05;;;;;;;11.80;8.20;;;;;;;27.66;41.14;101092.72;5074718;28;20031;-80
2021/07/24 06:12:30;;;;;;;11.88;8.10;;;;;;;27.67;41.15;101099.13;5074644;28;20052;-80
2021/07/24 06:14:56;;;;;;;11.50;8.20;;;;;;;27.48;41.46;101097.75;5075913;28;20070;-79
2021/07/24 06:17:21;;;;;;;10.65;9.52;;;;;;;27.37;41.86;101100.72;5076329;28;20025;-81
2021/07/24 06:19:47;;;;;;;10.73;9.55;;;;;;;27.70;41.06;101110.31;5076186;28;20095;-82
2021/07/24 06:22:13;;;;;;;30.58;11.40;;;;;;;27.76;41.12;101114.25;5074796;28;20024;-81
2021/07/24 06:24:38;;;;;;;12.38;9.85;;;;;;;27.50;41.45;101110.13;5074715;28;20055;-87
2021/07/24 06:27:04;;;;;;;15.70;10.65;;;;;;;27.62;40.95;101115.19;5074536;28;20024;-80
2021/07/24 06:29:29;;;;;;;18.23;10.77;;;;;;;27.49;41.67;101110.56;5074496;28;20033;-81
2021/07/24 06:31:55;;;;;;;13.75;10.27;;;;;;;27.54;41.44;101108.09;5075666;28;20033;-81
2021/07/24 06:34:21;;;;;;;15.20;10.55;;;;;;;27.46;41.46;101109.41;5074826;28;20029;-87
2021/07/24 06:36:46;;;;;;;11.38;9.13;;;;;;;27.54;41.15;101112.91;5074050;28;20049;-82
2021/07/24 06:39:12;;;;;;;13.80;9.82;;;;;;;27.58;41.13;101114.47;5074312;28;20387;-81
2021/07/24 06:41:44;;;;;;;14.18;8.32;;;;;;;27.62;41.04;101114.41;5074489;28;20075;-82
2021/07/24 06:44:09;;;;;;;12.02;9.20;;;;;;;27.64;40.82;101126.00;5074523;28;20028;-81
2021/07/24 06:46:35;;;;;;;13.00;9.20;;;;;;;27.51;40.85;101128.59;5074522;28;20042;-81
2021/07/24 06:49:00;;;;;;;11.90;8.73;;;;;;;27.42;40.96;101124.69;5073877;28;20059;-82
2021/07/24 06:51:26;;;;;;;15.65;9.02;;;;;;;27.41;40.53;101125.91;5073585;28;20382;-81
2021/07/24 06:53:52;;;;;;;11.13;7.85;;;;;;;27.49;40.27;101131.00;5072715;28;20131;-81
2021/07/24 06:56:17;;;;;;;10.07;8.73;;;;;;;27.47;39.98;101127.81;5073840;28;20024;-81
2021/07/24 06:58:43;;;;;;;10.45;8.25;;;;;;;27.47;39.98;101130.63;5074041;28;20036;-83
2021/07/24 07:01:09;;;;;;;12.20;8.15;;;;;;;27.50;40.10;101137.41;5074352;28;20032;-83
2021/07/24 07:03:35;;;;;;;12.32;7.85;;;;;;;27.43;40.03;101141.09;5073956;28;20498;-83
2021/07/24 07:06:05;;;;;;;10.38;7.93;;;;;;;27.35;39.95;101139.59;5073801;28;20020;-83
2021/07/24 07:08:30;;;;;;;13.40;7.25;;;;;;;27.41;39.52;101131.50;5074197;28;20025;-83
2021/07/24 07:11:03;;;;;;;21.25;7.65;;;;;;;27.52;39.36;101127.38;5074203;28;20025;-92
2021/07/24 07:13:28;;;;;;;24.88;7.97;;;;;;;27.58;39.43;101131.31;5075746;28;20024;-93
2021/07/24 07:15:54;;;;;;;11.05;6.97;;;;;;;27.61;39.14;101129.66;5075018;28;20025;-82
2021/07/24 07:18:20;;;;;;;15.30;8.20;;;;;;;27.62;38.72;101132.03;5073844;28;20039;-82
2021/07/24 07:20:49;;;;;;;8.00;6.82;;;;;;;27.69;38.85;101136.81;5073983;28;20036;-83
2021/07/24 07:23:15;;;;;;;10.30;6.95;;;;;;;27.83;38.50;101141.44;5073859;28;20028;-82
2021/07/24 07:25:40;;;;;;;10.73;6.68;;;;;;;27.74;38.76;101139.16;5071084;28;20039;-85
2021/07/24 07:28:06;;;;;;;8.18;6.00;;;;;;;27.74;38.72;101132.75;5073899;28;20032;-83
2021/07/24 07:30:32;;;;;;;8.90;5.30;;;;;;;27.59;38.82;101141.31;5073754;28;20032;-83
2021/07/24 07:32:57;;;;;;;16.80;5.93;;;;;;;27.53;38.82;101134.56;5074034;28;20106;-83
2021/07/24 07:35:23;;;;;;;7.88;5.70;;;;;;;27.48;38.95;101134.22;5074095;28;20028;-83
2021/07/24 07:37:50;;;;;;;12.35;5.90;;;;;;;27.58;38.90;101136.09;5073451;28;20074;-85
2021/07/24 07:40:17;;;;;;;10.52;5.18;;;;;;;27.58;38.83;101136.94;5073717;28;20039;-83
2021/07/24 07:42:42;;;;;;;8.35;5.15;;;;;;;27.73;38.63;101129.13;5072968;28;20032;-82
2021/07/24 07:45:09;;;;;;;7.60;5.43;;;;;;;27.71;38.59;101134.38;5074036;28;20082;-82
2021/07/24 07:47:37;;;;;;;8.07;5.05;;;;;;;27.67;38.52;101135.63;5073607;28;20521;-76
2021/07/24 07:50:04;;;;;;;7.93;5.70;;;;;;;27.58;38.58;101130.47;5073919;28;20028;-77
2021/07/24 07:52:29;;;;;;;8.20;5.57;;;;;;;27.68;38.49;101131.63;5073947;28;20029;-75
2021/07/24 07:54:55;;;;;;;8.25;5.80;;;;;;;27.75;38.47;101128.72;5072170;28;20131;-79
2021/07/24 07:57:20;;;;;;;11.43;6.22;;;;;;;27.85;38.16;101124.97;5072566;28;20033;-75
2021/07/24 07:59:46;;;;;;;8.43;7.05;;;;;;;27.84;38.35;101120.56;5074164;28;20060;-86
2021/07/24 08:02:12;;;;;;;7.97;6.85;;;;;;;27.84;38.14;101124.16;5074203;28;20029;-86
2021/07/24 08:04:37;;;;;;;8.27;7.40;;;;;;;27.95;38.02;101137.25;5073934;28;20097;-85
2021/07/24 08:07:03;;;;;;;10.00;7.88;;;;;;;28.00;37.96;101142.41;5074002;28;20084;-79
2021/07/24 08:09:28;;;;;;;11.20;7.47;;;;;;;28.12;37.75;101134.19;5073673;28;20028;-78
2021/07/24 08:11:56;;;;;;;12.23;8.00;;;;;;;28.24;37.43;101134.81;5072500;28;20082;-84
2021/07/24 08:14:22;;;;;;;11.13;7.95;;;;;;;28.32;37.44;101125.09;5072722;28;20025;-79
2021/07/24 08:16:47;;;;;;;13.95;7.22;;;;;;;28.22;37.78;101124.00;5072032;28;20036;-87
2021/07/24 08:19:13;;;;;;;11.98;8.15;;;;;;;28.41;37.42;101130.94;5071505;28;20475;-82
2021/07/24 08:21:38;;;;;;;8.73;7.82;;;;;;;28.44;37.08;101130.13;5071098;28;20028;-82
2021/07/24 08:24:05;;;;;;;10.75;7.57;;;;;;;28.54;36.96;101129.13;5071315;28;20479;-79
2021/07/24 08:26:30;;;;;;;14.75;8.13;;;;;;;28.33;37.20;101138.69;5072377;28;20020;-85
2021/07/24 08:28:56;;;;;;;12.82;8.55;;;;;;;28.31;37.27;101143.97;5070832;28;20023;-79
2021/07/24 08:31:21;;;;;;;12.50;9.68;;;;;;;28.52;36.86;101142.84;5072234;28;20099;-81
2021/07/24 08:33:47;;;;;;;10.50;8.10;;;;;;;28.62;36.95;101132.63;5069941;28;20463;-80
2021/07/24 08:36:13;;;;;;;14.68;9.00;;;;;;;28.58;37.02;101138.31;5069882;28;20028;-79
2021/07/24 08:38:38;;;;;;;14.48;8.75;;;;;;;28.72;36.62;101138.06;5072203;28;20038;-79
2021/07/24 08:41:04;;;;;;;11.30;9.50;;;;;;;28.68;36.90;101128.91;5070812;28;20024;-79
2021/07/24 08:43:30;;;;;;;11.27;8.48;;;;;;;28.69;36.47;101136.09;5072236;28;20029;-78
2021/07/24 08:45:56;;;;;;;12.65;8.45;;;;;;;28.66;36.65;101136.97;5071726;28;20542;-79
2021/07/24 08:48:22;;;;;;;10.07;8.23;;;;;;;28.52;37.25;101134.41;5072528;28;20067;-79
2021/07/24 08:50:49;;;;;;;11.80;8.77;;;;;;;28.69;37.13;101135.31;5073280;28;20080;-91
2021/07/24 08:53:25;;;;;;;11.75;8.23;;;;;;;28.59;36.94;101120.22;5068240;28;20059;-92
2021/07/24 08:56:02;;;;;;;16.55;9.13;;;;;;;28.57;36.86;101119.88;5060155;28;20024;-95
2021/07/24 08:58:32;;;;;;;10.35;7.30;;;;;;;28.85;36.17;101115.72;5058557;28;20525;-77
2021/07/24 09:00:57;;;;;;;12.68;6.47;;;;;;;29.05;35.89;101112.19;5055668;28;20098;-91
2021/07/24 09:03:27;;;;;;;15.07;7.15;;;;;;;29.19;35.48;101111.94;5057793;28;20012;-75
2021/07/24 09:05:54;;;;;;;12.05;8.50;;;;;;;29.15;35.49;101117.59;5057385;28;20024;-73
2021/07/24 09:08:24;;;;;;;15.00;10.48;;;;;;;29.19;35.93;101118.34;5065512;28;20017;-75
2021/07/24 09:10:51;;;;;;;12.00;9.20;;;;;;;29.47;35.46;101116.16;5069151;28;20471;-85
2021/07/24 09:13:17;;;;;;;10.40;8.07;;;;;;;29.38;35.71;101115.94;5069714;28;20034;-78
2021/07/24 09:15:43;;;;;;;10.20;9.20;;;;;;;29.37;35.52;101109.53;5070453;28;20103;-76
2021/07/24 09:18:09;;;;;;;12.38;9.30;;;;;;;29.52;34.97;101116.47;5074003;28;20550;-91
2021/07/24 09:20:35;;;;;;;10.23;7.32;;;;;;;29.57;34.77;101112.38;5076250;28;20063;-87
2021/07/24 09:23:27;;;;;;;8.38;6.82;;;;;;;29.64;34.51;101115.03;5063051;28;20025;-79
2021/07/24 09:25:53;;;;;;;12.02;8.52;;;;;;;29.50;34.96;101120.97;5058932;28;20113;-77
2021/07/24 09:28:19;;;;;;;16.75;9.95;;;;;;;29.49;34.51;101113.72;5074035;28;20036;-76
2021/07/24 09:30:45;;;;;;;9.50;6.82;;;;;;;29.46;34.88;101108.94;5073147;28;20103;-76
2021/07/24 09:33:15;;;;;;;9.23;6.70;;;;;;;29.48;33.87;101121.38;5073692;28;20074;-76
2021/07/24 09:35:51;;;;;;;10.63;8.05;;;;;;;29.56;34.18;101113.59;5074911;28;20033;-76
2021/07/24 09:38:29;;;;;;;11.13;6.50;;;;;;;29.42;34.35;101109.03;5056359;28;20052;-76
2021/07/24 09:40:56;;;;;;;10.02;7.72;;;;;;;29.52;34.48;101107.25;5055141;28;20253;-77
2021/07/24 09:43:42;;;;;;;10.50;6.82;;;;;;;29.62;34.06;101102.59;5055513;28;20127;-75
2021/07/24 09:46:09;;;;;;;11.88;7.30;;;;;;;29.37;33.75;101089.81;5062471;28;20143;-80
2021/07/24 09:48:34;;;;;;;8.98;5.10;;;;;;;29.24;34.25;101097.34;5057551;28;20054;-77
2021/07/24 09:51:00;;;;;;;9.88;6.10;;;;;;;29.05;34.20;101095.31;5052114;28;20028;-77
2021/07/24 09:53:42;;;;;;;8.82;5.80;;;;;;;29.10;34.51;101090.00;5056854;28;20054;-75
2021/07/24 09:56:17;;;;;;;10.75;5.00;;;;;;;29.51;33.33;101085.94;5057704;28;20020;-75
2021/07/24 09:58:44;;;;;;;8.38;5.82;;;;;;;29.44;33.92;101100.16;5056228;28;20044;-76
2021/07/24 10:01:18;;;;;;;6.53;5.00;;;;;;;29.63;33.09;101092.94;5057179;28;20033;-73
2021/07/24 10:03:49;;;;;;;7.07;5.13;;;;;;;29.68;33.17;101098.84;5059654;28;20033;-82
2021/07/24 10:06:18;;;;;;;5.63;4.25;;;;;;;29.87;32.88;101099.25;5064682;28;20020;-77
2021/07/24 10:08:49;;;;;;;5.75;4.88;;;;;;;29.99;33.02;101090.09;5075462;28;20154;-76
2021/07/24 10:11:15;;;;;;;10.82;6.20;;;;;;;30.12;32.93;101082.56;5067124;28;20036;-76
2021/07/24 10:13:43;;;;;;;12.63;5.53;;;;;;;29.92;33.23;101095.88;5058188;28;20039;-76
2021/07/24 10:16:09;;;;;;;7.90;5.03;;;;;;;29.70;33.11;101090.78;5059110;28;20031;-77
2021/07/24 10:18:35;;;;;;;8.48;5.40;;;;;;;29.94;32.93;101085.00;5058340;28;20028;-75
2021/07/24 10:21:01;;;;;;;9.45;5.00;;;;;;;29.88;33.41;101089.56;5059267;28;20024;-77
2021/07/24 10:23:28;;;;;;;6.78;5.65;;;;;;;29.98;32.66;101077.25;5059394;28;20020;-75
2021/07/24 10:26:05;;;;;;;6.10;4.30;;;;;;;29.88;32.77;101075.47;5058167;28;20021;-76
2021/07/24 10:28:55;;;;;;;10.30;5.07;;;;;;;29.86;33.01;101075.13;5057799;28;20028;-78
2021/07/24 10:31:25;;;;;;;8.70;4.88;;;;;;;30.22;32.50;101070.22;5063722;28;20031;-76
2021/07/24 10:33:58;;;;;;;9.02;4.78;;;;;;;30.18;32.71;101069.53;5075343;28;20112;-77
2021/07/24 10:36:39;;;;;;;11.50;5.25;;;;;;;30.20;32.30;101072.72;5074776;28;20052;-77
2021/07/24 10:39:06;;;;;;;8.88;5.35;;;;;;;30.23;32.44;101066.22;5073919;28;20483;-88
2021/07/24 10:41:31;;;;;;;5.85;4.63;;;;;;;30.27;32.31;101072.53;5074116;28;20364;-76
2021/07/24 10:43:59;;;;;;;18.33;7.50;;;;;;;30.17;32.42;101070.00;5058926;28;20034;-77
2021/07/24 10:49:08;;;;;;;23.98;6.40;;;;;;;30.37;32.67;101065.81;5057815;28;20082;-76
2021/07/24 10:51:57;;;;;;;8.65;4.50;;;;;;;30.44;32.64;101066.88;5057992;28;20051;-76
2021/07/24 10:54:24;;;;;;;9.40;4.80;;;;;;;30.44;32.34;101064.84;5051007;28;20493;-76
2021/07/24 10:56:50;;;;;;;7.32;4.57;;;;;;;30.37;32.44;101062.22;5056534;28;20016;-76
2021/07/24 10:59:29;;;;;;;5.82;4.28;;;;;;;30.42;31.65;101064.50;5058329;28;20039;-76
2021/07/24 11:02:01;;;;;;;11.38;4.72;;;;;;;30.63;31.87;101063.94;5057230;28;20028;-76
2021/07/24 11:04:38;;;;;;;19.13;5.03;;;;;;;30.37;32.26;101054.53;5058124;28;20020;-77
2021/07/24 11:07:13;;;;;;;5.82;4.40;;;;;;;30.56;31.90;101066.97;5058269;28;20074;-77
2021/07/24 11:10:03;;;;;;;9.60;4.28;;;;;;;30.54;31.84;101069.44;5056789;28;20936;-84
2021/07/24 11:12:39;;;;;;;7.32;4.60;;;;;;;30.63;32.28;101063.16;5060590;28;20036;-78
2021/07/24 11:15:06;;;;;;;9.57;4.45;;;;;;;30.70;32.43;101065.81;5058073;28;20081;-90
2021/07/24 11:17:32;;;;;;;9.30;5.07;;;;;;;30.78;32.05;101066.41;5059645;28;20123;-85
2021/07/24 11:20:01;;;;;;;7.75;4.47;;;;;;;30.82;31.92;101067.09;5059262;28;20043;-80